EGNV/MME METAR and TAF weather

Enter ICAO airport designator
Station Type Date Time Source
EGNV METAR 2022/06/28 20:50 UTC NOAA

EGNV 282050Z 19005KT 9999 FEW045 15/09 Q1011


Station Type Date Time Source
EGNV Decoded METAR 2022/06/28 20:50 UTC NOAA

Tees-Side, United Kingdom (EGNV) 54-31N 001-25W
Jun 28, 2022 - 04:50 PM EDT / 2022.06.28 2050 UTC
Wind: from the S (190 degrees) at 6 MPH (5 KT):0
Visibility: greater than 7 mile(s):0
Sky conditions: mostly clear
Temperature: 59 F (15 C)
Dew Point: 48 F (9 C)
Relative Humidity: 67%
Pressure (altimeter): 29.85 in. Hg (1011 hPa)
ob: EGNV 282050Z 19005KT 9999 FEW045 15/09 Q1011
cycle: 21

Station Type Date Time Source
EGNV TAF 2022/05/08 18:30 UTC NOAA

TAF TAF EGNV 081727Z 0818/0921 CNL

Example: see airport list